createdAt,value
2022-11-23T00:01:14.769Z,0.01
2022-11-23T00:03:43.120Z,0.09
2022-11-23T00:06:11.454Z,0.13
2022-11-23T00:08:39.846Z,0.11
2022-11-23T00:11:08.232Z,-0.04
2022-11-23T00:13:36.971Z,0.03
2022-11-23T00:16:07.154Z,0.02
2022-11-23T00:18:36.939Z,-0.02
2022-11-23T00:21:09.600Z,-0.49
2022-11-23T00:23:38.023Z,-0.32
2022-11-23T00:26:07.507Z,-0.37
2022-11-23T00:28:40.701Z,-0.43
2022-11-23T00:31:11.442Z,-0.38
2022-11-23T00:33:41.548Z,-0.51
2022-11-23T00:36:13.418Z,-0.50
2022-11-23T00:38:42.345Z,-0.51
2022-11-23T00:41:12.549Z,-0.42
2022-11-23T00:43:42.487Z,-0.41
2022-11-23T00:46:15.460Z,-0.42
2022-11-23T00:48:45.761Z,-0.27
2022-11-23T00:51:16.624Z,-0.23
2022-11-23T00:53:45.574Z,-0.39
2022-11-23T00:56:14.448Z,-0.28
2022-11-23T00:58:42.857Z,-0.23
2022-11-23T01:01:15.941Z,-0.33
2022-11-23T01:03:47.890Z,-0.26
2022-11-23T01:06:17.917Z,-0.43
2022-11-23T01:08:50.641Z,-0.28
2022-11-23T01:11:19.224Z,-0.23
2022-11-23T01:13:47.858Z,-0.25
2022-11-23T01:16:23.575Z,-0.41
2022-11-23T01:18:55.438Z,-0.25
2022-11-23T01:21:25.647Z,-0.46
2022-11-23T01:23:54.153Z,-0.44
2022-11-23T01:26:22.805Z,-0.35
2022-11-23T01:28:51.580Z,-0.40
2022-11-23T01:31:21.484Z,-0.43
2022-11-23T01:33:55.401Z,-0.39
2022-11-23T01:36:24.722Z,-0.41
2022-11-23T01:38:53.077Z,-0.44
2022-11-23T01:41:27.193Z,-0.37
2022-11-23T01:43:55.917Z,-0.38
2022-11-23T01:46:24.300Z,-0.52
2022-11-23T01:48:56.835Z,-0.36
2022-11-23T01:51:28.753Z,-0.45
2022-11-23T01:54:00.762Z,-0.44
2022-11-23T01:56:32.209Z,-0.45
2022-11-23T01:59:02.358Z,-0.49
2022-11-23T02:01:30.797Z,-0.50
2022-11-23T02:04:02.546Z,-0.52
2022-11-23T02:06:31.663Z,-0.55
2022-11-23T02:09:03.532Z,-0.52
2022-11-23T02:11:31.919Z,-0.60
2022-11-23T02:14:00.401Z,-0.56
2022-11-23T02:16:31.673Z,-0.87
2022-11-23T02:19:01.588Z,-0.52
2022-11-23T02:21:29.998Z,-0.50
2022-11-23T02:24:03.129Z,-0.70
2022-11-23T02:26:34.705Z,-0.48
2022-11-23T02:29:07.665Z,-0.37
2022-11-23T02:31:36.198Z,-0.40
2022-11-23T02:34:04.628Z,-0.45
2022-11-23T02:36:39.218Z,-0.54
2022-11-23T02:39:11.262Z,-0.73
2022-11-23T02:41:44.190Z,-0.51
2022-11-23T02:44:23.530Z,-0.54
2022-11-23T02:46:52.290Z,-0.55
2022-11-23T02:49:20.745Z,-0.54
2022-11-23T02:51:51.240Z,-0.44
2022-11-23T02:54:19.621Z,-0.39
2022-11-23T02:56:49.315Z,-0.28
2022-11-23T02:59:19.199Z,-0.35
2022-11-23T03:01:47.809Z,-0.44
2022-11-23T03:04:16.275Z,-0.42
2022-11-23T03:06:46.227Z,-0.34
2022-11-23T03:09:14.939Z,-0.36
2022-11-23T03:11:43.500Z,-0.40
2022-11-23T03:14:13.492Z,-0.50
2022-11-23T03:16:50.977Z,-0.53
2022-11-23T03:19:20.515Z,-0.68
2022-11-23T03:21:50.149Z,-0.66
2022-11-23T03:24:18.543Z,-0.57
2022-11-23T03:26:48.383Z,-0.47
2022-11-23T03:29:26.357Z,-0.54
2022-11-23T03:31:56.084Z,-0.48
2022-11-23T03:34:24.789Z,-0.44
2022-11-23T03:36:53.314Z,-0.61
2022-11-23T03:39:21.992Z,-0.62
2022-11-23T03:42:08.569Z,-0.67
2022-11-23T03:44:38.852Z,-0.62
2022-11-23T03:47:07.218Z,-0.70
2022-11-23T03:49:37.189Z,-0.59
2022-11-23T03:52:06.167Z,-0.57
2022-11-23T03:54:34.469Z,-0.65
2022-11-23T03:57:02.839Z,-0.67
2022-11-23T03:59:31.477Z,-0.76
2022-11-23T04:02:01.382Z,-0.71
2022-11-23T04:04:34.634Z,-0.80
2022-11-23T04:07:10.374Z,-0.72
2022-11-23T04:09:52.184Z,-0.73
2022-11-23T04:12:52.510Z,-0.74
2022-11-23T04:15:20.815Z,-0.78
2022-11-23T04:17:50.529Z,-0.84
2022-11-23T04:20:19.054Z,-0.74
2022-11-23T04:22:47.389Z,-0.82
2022-11-23T04:25:16.274Z,-0.87
2022-11-23T04:27:44.592Z,-0.95
2022-11-23T04:30:14.201Z,-0.90
2022-11-23T04:32:42.565Z,-0.88
2022-11-23T04:35:12.889Z,-0.83
2022-11-23T04:37:43.360Z,-0.90
2022-11-23T04:40:13.460Z,-0.88
2022-11-23T04:42:45.385Z,-0.88
2022-11-23T04:45:13.867Z,-0.82
2022-11-23T04:47:42.909Z,-0.87
2022-11-23T04:50:17.081Z,-0.87
2022-11-23T04:52:50.667Z,-0.97
2022-11-23T04:55:23.502Z,-0.86
2022-11-23T04:57:58.419Z,-0.89
2022-11-23T05:00:30.608Z,-0.90
2022-11-23T05:03:01.408Z,-0.89
2022-11-23T05:05:34.443Z,-0.82
2022-11-23T05:08:04.302Z,-0.88
2022-11-23T05:10:53.801Z,-0.84
2022-11-23T05:13:22.089Z,-0.86
2022-11-23T05:15:51.634Z,-0.86
2022-11-23T05:18:26.130Z,-0.85
2022-11-23T05:20:56.454Z,-0.79
2022-11-23T05:23:24.741Z,-0.86
2022-11-23T05:25:55.033Z,-0.80
2022-11-23T05:28:39.791Z,-0.83
2022-11-23T05:31:10.595Z,-0.80
2022-11-23T05:33:38.951Z,-0.87
2022-11-23T05:36:14.010Z,-0.87
2022-11-23T05:38:43.574Z,-0.75
2022-11-23T05:41:20.972Z,-0.76
2022-11-23T05:43:52.297Z,-0.80
2022-11-23T05:46:25.265Z,-0.78
2022-11-23T05:48:53.692Z,-0.81
2022-11-23T05:51:23.460Z,-0.79
2022-11-23T05:53:52.405Z,-0.78
2022-11-23T05:56:40.319Z,-0.85
2022-11-23T05:59:21.175Z,-0.85
2022-11-23T06:01:54.413Z,-0.98
2022-11-23T06:04:31.085Z,-0.72
2022-11-23T06:07:02.084Z,-0.74
2022-11-23T06:09:44.809Z,-0.69
2022-11-23T06:12:13.565Z,-0.72
2022-11-23T06:14:41.876Z,-0.66
2022-11-23T06:17:10.264Z,-0.70
2022-11-23T06:19:44.013Z,-0.75
2022-11-23T06:22:15.623Z,-0.80
2022-11-23T06:24:55.960Z,-0.74
2022-11-23T06:27:41.529Z,-0.75
2022-11-23T06:30:17.685Z,-0.71
2022-11-23T06:32:46.430Z,-0.80
2022-11-23T06:35:15.258Z,-0.68
2022-11-23T06:37:46.772Z,-0.64
2022-11-23T06:40:15.107Z,-0.78
2022-11-23T06:42:44.495Z,-0.77
2022-11-23T06:45:19.489Z,-0.62
2022-11-23T06:47:50.062Z,-0.64
2022-11-23T06:50:18.947Z,-0.64
2022-11-23T06:52:50.229Z,-0.53
2022-11-23T06:55:19.711Z,-0.60
2022-11-23T06:57:48.394Z,-0.45
2022-11-23T07:00:17.743Z,-0.55
2022-11-23T07:02:50.438Z,-0.64
2022-11-23T07:05:19.214Z,-0.62
2022-11-23T07:07:49.755Z,-0.66
2022-11-23T07:10:25.871Z,-0.67
2022-11-23T07:13:05.820Z,-0.64
2022-11-23T07:15:35.131Z,-0.56
2022-11-23T07:18:03.641Z,-0.61
2022-11-23T07:20:33.043Z,-0.51
2022-11-23T07:23:03.385Z,-0.54
2022-11-23T07:25:32.609Z,-0.57
2022-11-23T07:28:02.741Z,-0.57
2022-11-23T07:30:32.424Z,-0.57
2022-11-23T07:33:02.687Z,-0.80
2022-11-23T07:35:32.885Z,-0.61
2022-11-23T07:38:02.759Z,-0.56
2022-11-23T07:40:31.107Z,-0.54
2022-11-23T07:43:02.858Z,-0.50
2022-11-23T07:45:31.754Z,-0.53
2022-11-23T07:48:01.953Z,-0.56
2022-11-23T07:50:30.739Z,-1.00
2022-11-23T07:52:59.033Z,-0.59
2022-11-23T07:55:28.738Z,-0.52
2022-11-23T07:57:57.031Z,-0.50
2022-11-23T08:00:26.470Z,-0.59
2022-11-23T08:03:25.561Z,-0.59
2022-11-23T08:05:43.216Z,-0.70
2022-11-23T08:08:11.984Z,-0.71
2022-11-23T08:10:46.066Z,-0.82
2022-11-23T08:13:15.666Z,-0.59
2022-11-23T08:15:45.653Z,-0.74
2022-11-23T08:18:17.146Z,-0.61
2022-11-23T08:20:45.457Z,-0.70
2022-11-23T08:23:13.753Z,-0.60
2022-11-23T08:25:43.501Z,-0.57
2022-11-23T08:28:12.070Z,-0.60
2022-11-23T08:30:40.598Z,-0.62
2022-11-23T08:33:09.826Z,-0.60
2022-11-23T08:35:39.382Z,-0.59
2022-11-23T08:38:10.313Z,-0.57
2022-11-23T08:40:39.167Z,-0.48
2022-11-23T08:43:11.397Z,-0.56
2022-11-23T08:45:39.709Z,-0.46
2022-11-23T08:48:08.911Z,-0.40
2022-11-23T08:50:37.535Z,-0.62
2022-11-23T08:53:06.020Z,-0.36
2022-11-23T08:55:34.339Z,-0.46
2022-11-23T08:58:02.637Z,-0.22
2022-11-23T09:00:32.606Z,-0.33
2022-11-23T09:03:01.059Z,-0.38
2022-11-23T09:05:30.934Z,-0.47
2022-11-23T09:08:01.409Z,-0.22
2022-11-23T09:10:30.083Z,-0.14
2022-11-23T09:12:58.985Z,-0.04
2022-11-23T09:15:27.318Z,-0.06
2022-11-23T09:17:57.848Z,-0.23
2022-11-23T09:20:26.275Z,-0.17
2022-11-23T09:22:56.074Z,-0.27
2022-11-23T09:25:24.563Z,-0.11
2022-11-23T09:27:58.625Z,0.04
2022-11-23T09:30:27.355Z,-0.18
2022-11-23T09:32:58.411Z,-0.52
2022-11-23T09:35:26.918Z,-0.23
2022-11-23T09:37:58.597Z,-0.23
2022-11-23T09:40:30.325Z,-0.12
2022-11-23T09:43:26.445Z,-0.24
2022-11-23T09:45:55.943Z,-0.24
2022-11-23T09:48:43.655Z,-0.35
2022-11-23T09:51:17.333Z,-0.15
2022-11-23T09:53:48.537Z,-0.12
2022-11-23T09:56:20.086Z,-0.17
2022-11-23T09:58:48.714Z,-0.12
2022-11-23T10:01:17.525Z,-0.04
2022-11-23T10:03:49.343Z,-0.12
2022-11-23T10:06:20.674Z,0.05
2022-11-23T10:08:59.146Z,-0.17
2022-11-23T10:12:06.022Z,-0.29
2022-11-23T10:14:47.084Z,-0.41
2022-11-23T10:17:22.169Z,-0.35
2022-11-23T10:20:02.518Z,-0.33
2022-11-23T10:22:37.179Z,-0.26
2022-11-23T10:25:15.826Z,-0.35
2022-11-23T10:27:45.998Z,-0.48
2022-11-23T10:30:15.899Z,-0.42
2022-11-23T10:32:48.512Z,-0.30
2022-11-23T10:35:20.265Z,-0.34
2022-11-23T10:37:50.467Z,-0.27
2022-11-23T10:40:24.702Z,-0.35
2022-11-23T10:42:55.878Z,-0.47
2022-11-23T10:45:26.377Z,-0.60
2022-11-23T10:47:56.189Z,-0.38
2022-11-23T10:50:30.080Z,-0.34
2022-11-23T10:53:00.940Z,-0.44
2022-11-23T10:55:31.143Z,-0.44
2022-11-23T10:57:59.744Z,-0.45
2022-11-23T11:00:31.280Z,-0.35
2022-11-23T11:03:00.633Z,-0.32
2022-11-23T11:06:07.586Z,-0.41
2022-11-23T11:08:22.676Z,-0.38
2022-11-23T11:10:52.171Z,-0.41
2022-11-23T11:13:31.073Z,-0.50
2022-11-23T11:16:00.965Z,-0.46
2022-11-23T11:18:31.841Z,-0.50
2022-11-23T11:21:04.506Z,-0.54
2022-11-23T11:23:33.243Z,-0.53
2022-11-23T11:26:07.455Z,-0.58
2022-11-23T11:28:38.230Z,-0.57
2022-11-23T11:31:20.668Z,-0.58
2022-11-23T11:33:53.807Z,-0.56
2022-11-23T11:36:23.775Z,-0.59
2022-11-23T11:39:17.077Z,-0.52
2022-11-23T11:41:44.470Z,-0.55
2022-11-23T11:44:18.605Z,-0.39
2022-11-23T11:46:50.508Z,-0.61
2022-11-23T11:49:23.019Z,-0.51
2022-11-23T11:51:55.989Z,-0.50
2022-11-23T11:54:29.521Z,-0.57
2022-11-23T11:57:02.155Z,-0.50
2022-11-23T11:59:32.250Z,-0.56
2022-11-23T12:02:08.834Z,-0.54
2022-11-23T12:04:41.638Z,-0.65
2022-11-23T12:07:15.405Z,-0.60
2022-11-23T12:09:46.310Z,-0.59
2022-11-23T12:12:17.459Z,-0.68
2022-11-23T12:14:47.067Z,-0.83
2022-11-23T12:17:33.839Z,-0.59
2022-11-23T12:20:09.062Z,-0.61
2022-11-23T12:22:46.157Z,-0.64
2022-11-23T12:25:22.415Z,-0.84
2022-11-23T12:28:00.661Z,-0.63
2022-11-23T12:30:36.239Z,-0.92
2022-11-23T12:33:22.352Z,-0.85
2022-11-23T12:36:01.272Z,-0.74
2022-11-23T12:38:37.265Z,-0.63
2022-11-23T12:41:16.571Z,-0.70
2022-11-23T12:43:54.078Z,-0.62
2022-11-23T12:46:27.555Z,-0.61
2022-11-23T12:49:07.737Z,-0.64
2022-11-23T12:51:40.733Z,-0.88
2022-11-23T12:54:22.519Z,-0.63
2022-11-23T12:57:08.081Z,-0.63
2022-11-23T12:59:43.649Z,-0.58
2022-11-23T13:02:18.606Z,-0.60
2022-11-23T13:05:08.363Z,-0.67
2022-11-23T13:07:50.352Z,-0.59
2022-11-23T13:10:44.457Z,-0.79
2022-11-23T13:13:28.078Z,-0.69
2022-11-23T13:16:15.451Z,-0.69
2022-11-23T13:18:58.933Z,-0.74
2022-11-23T13:21:36.286Z,-0.88
2022-11-23T13:24:05.020Z,-0.77
2022-11-23T13:26:34.703Z,-0.73
2022-11-23T13:29:37.866Z,-0.74
2022-11-23T13:32:36.305Z,-0.79
2022-11-23T13:35:04.959Z,-0.80
2022-11-23T13:38:08.101Z,-0.89
2022-11-23T13:40:37.754Z,-0.91
2022-11-23T13:43:17.431Z,-1.01
2022-11-23T13:45:46.295Z,-1.07
2022-11-23T13:48:48.924Z,-1.16
2022-11-23T13:51:07.243Z,-1.17
2022-11-23T13:53:36.537Z,-1.23
2022-11-23T13:56:36.995Z,-1.46
2022-11-23T13:59:32.413Z,-1.22
2022-11-23T14:02:30.514Z,-1.28
2022-11-23T14:05:35.710Z,-1.30
2022-11-23T14:08:05.276Z,-1.34
2022-11-23T14:10:33.885Z,-1.32
2022-11-23T14:13:05.722Z,-1.31
2022-11-23T14:15:37.098Z,-1.38
2022-11-23T14:18:17.754Z,-1.31
2022-11-23T14:21:03.179Z,-1.35
2022-11-23T14:24:11.207Z,-1.29
2022-11-23T14:26:49.410Z,-1.46
2022-11-23T14:29:30.475Z,-1.63
2022-11-23T14:32:13.880Z,-1.41
2022-11-23T14:34:51.257Z,-1.42
2022-11-23T14:37:27.190Z,-1.43
2022-11-23T14:40:19.169Z,-1.47
2022-11-23T14:42:53.545Z,-1.43
2022-11-23T14:45:23.113Z,-1.50
2022-11-23T14:47:52.978Z,-1.42
2022-11-23T14:50:26.135Z,-1.47
2022-11-23T14:52:55.375Z,-1.58
2022-11-23T14:55:25.277Z,-1.47
2022-11-23T14:57:56.875Z,-1.34
2022-11-23T15:00:31.965Z,-1.55
2022-11-23T15:03:42.119Z,-1.51
2022-11-23T15:06:02.956Z,-1.34
2022-11-23T15:08:33.329Z,-1.45
2022-11-23T15:11:04.505Z,-1.63
2022-11-23T15:13:46.986Z,-1.56
2022-11-23T15:16:17.146Z,-1.44
2022-11-23T15:18:47.566Z,-1.61
2022-11-23T15:21:26.634Z,-1.74
2022-11-23T15:23:57.556Z,-1.41
2022-11-23T15:26:47.587Z,-1.43
2022-11-23T15:29:34.488Z,-1.45
2022-11-23T15:34:55.359Z,-1.49
2022-11-23T15:37:24.356Z,-1.57
2022-11-23T15:39:53.918Z,-1.45
2022-11-23T15:42:33.917Z,-1.53
2022-11-23T15:45:02.306Z,-1.66
2022-11-23T15:47:32.175Z,-1.72
2022-11-23T15:50:04.123Z,-1.70
2022-11-23T15:52:36.008Z,-1.63
2022-11-23T15:55:09.727Z,-1.85
2022-11-23T15:57:39.658Z,-1.65
2022-11-23T16:00:10.275Z,-1.54
2022-11-23T16:02:41.731Z,-1.56
2022-11-23T16:05:15.922Z,-1.60
2022-11-23T16:07:54.910Z,-1.63
2022-11-23T16:10:25.997Z,-1.61
2022-11-23T16:12:55.490Z,-1.66
2022-11-23T16:15:44.187Z,-1.90
2022-11-23T16:18:24.900Z,-1.79
2022-11-23T16:20:56.482Z,-1.88
2022-11-23T16:23:26.972Z,-1.98
2022-11-23T16:25:56.961Z,-1.95
2022-11-23T16:28:29.744Z,-2.11
2022-11-23T16:30:58.686Z,-2.02
2022-11-23T16:33:27.169Z,-2.05
2022-11-23T16:35:56.926Z,-2.06
2022-11-23T16:38:28.512Z,-2.02
2022-11-23T16:40:57.172Z,-2.14
2022-11-23T16:43:25.594Z,-2.18
2022-11-23T16:45:53.993Z,-2.16
2022-11-23T16:48:46.298Z,-2.12
2022-11-23T16:51:16.184Z,-2.28
2022-11-23T16:56:34.177Z,-2.23
2022-11-23T16:59:02.576Z,-2.34
2022-11-23T17:01:32.689Z,-2.32
2022-11-23T17:04:01.218Z,-2.25
2022-11-23T17:06:31.092Z,-2.39
2022-11-23T17:09:06.412Z,-2.29
2022-11-23T17:11:39.555Z,-2.30
2022-11-23T17:14:08.180Z,-2.19
2022-11-23T17:16:36.654Z,-2.14
2022-11-23T17:19:05.164Z,-2.25
2022-11-23T17:21:34.828Z,-2.07
2022-11-23T17:24:04.048Z,-2.19
2022-11-23T17:26:34.964Z,-2.40
2022-11-23T17:29:04.910Z,-2.22
2022-11-23T17:31:33.349Z,-2.15
2022-11-23T17:34:02.405Z,-2.18
2022-11-23T17:36:31.476Z,-2.59
2022-11-23T17:39:01.210Z,-2.53
2022-11-23T17:41:29.604Z,-2.37
2022-11-23T17:43:59.446Z,-2.42
2022-11-23T17:46:28.406Z,-2.50
2022-11-23T17:48:58.363Z,-2.50
2022-11-23T17:51:28.366Z,-2.56
2022-11-23T17:53:57.007Z,-2.48
2022-11-23T17:56:26.935Z,-2.52
2022-11-23T17:58:55.291Z,-2.60
2022-11-23T18:01:24.116Z,-2.86
2022-11-23T18:03:52.601Z,-2.70
2022-11-23T18:06:22.088Z,-2.60
2022-11-23T18:08:51.165Z,-2.81
2022-11-23T18:11:19.946Z,-2.76
2022-11-23T18:13:50.683Z,-2.96
2022-11-23T18:16:20.535Z,-2.81
2022-11-23T18:18:49.203Z,-2.97
2022-11-23T18:21:17.820Z,-2.88
2022-11-23T18:23:46.166Z,-2.88
2022-11-23T18:26:17.546Z,-2.95
2022-11-23T18:28:45.934Z,-2.95
2022-11-23T18:31:17.267Z,-3.05
2022-11-23T18:33:46.009Z,-3.03
2022-11-23T18:36:14.838Z,-3.02
2022-11-23T18:38:44.991Z,-3.03
2022-11-23T18:41:13.772Z,-3.52
2022-11-23T18:43:42.115Z,-2.98
2022-11-23T18:46:11.558Z,-3.09
2022-11-23T18:48:41.416Z,-3.03
2022-11-23T18:51:11.916Z,-2.99
2022-11-23T18:53:41.256Z,-2.99
2022-11-23T18:56:10.620Z,-3.08
2022-11-23T18:58:40.774Z,-3.25
2022-11-23T19:01:12.672Z,-3.14
2022-11-23T19:03:43.449Z,-3.21
2022-11-23T19:06:17.225Z,-3.31
2022-11-23T19:08:46.897Z,-3.18
2022-11-23T19:11:18.044Z,-3.08
2022-11-23T19:13:48.214Z,-3.09
2022-11-23T19:16:18.097Z,-3.10
2022-11-23T19:18:47.912Z,-3.18
2022-11-23T19:21:17.568Z,-3.03
2022-11-23T19:23:49.194Z,-3.12
2022-11-23T19:26:17.596Z,-3.22
2022-11-23T19:28:46.095Z,-3.17
2022-11-23T19:31:15.856Z,-3.16
2022-11-23T19:33:44.728Z,-3.21
2022-11-23T19:36:15.930Z,-3.19
2022-11-23T19:38:44.596Z,-3.22
2022-11-23T19:41:13.327Z,-3.30
2022-11-23T19:43:42.921Z,-3.32
2022-11-23T19:46:13.982Z,-3.42
2022-11-23T19:48:42.454Z,-3.53
2022-11-23T19:51:14.773Z,-4.07
2022-11-23T19:53:43.964Z,-3.58
2022-11-23T19:56:13.731Z,-3.74
2022-11-23T19:58:42.894Z,-3.51
2022-11-23T20:01:12.880Z,-3.51
2022-11-23T20:03:42.671Z,-3.48
2022-11-23T20:06:15.975Z,-3.91
2022-11-23T20:08:45.123Z,-3.48
2022-11-23T20:11:15.369Z,-3.56
2022-11-23T20:13:44.682Z,-3.49
2022-11-23T20:16:14.747Z,-3.68
2022-11-23T20:18:43.822Z,-3.66
2022-11-23T20:21:13.124Z,-4.14
2022-11-23T20:23:43.920Z,-3.85
2022-11-23T20:26:14.863Z,-3.52
2022-11-23T20:28:43.412Z,-3.48
2022-11-23T20:31:20.009Z,-3.50
2022-11-23T20:33:50.519Z,-3.46
2022-11-23T20:36:20.537Z,-3.43
2022-11-23T20:38:50.777Z,-3.47
2022-11-23T20:41:21.516Z,-3.51
2022-11-23T20:43:50.833Z,-3.76
2022-11-23T20:46:38.174Z,-3.82
2022-11-23T20:49:07.713Z,-3.76
2022-11-23T20:51:36.424Z,-3.81
2022-11-23T20:54:06.359Z,-3.81
2022-11-23T20:56:34.704Z,-3.74
2022-11-23T20:59:04.836Z,-3.63
2022-11-23T21:01:33.445Z,-3.80
2022-11-23T21:04:01.789Z,-3.72
2022-11-23T21:06:34.437Z,-3.79
2022-11-23T21:09:07.048Z,-3.85
2022-11-23T21:11:52.733Z,-3.86
2022-11-23T21:14:23.302Z,-3.84
2022-11-23T21:16:55.356Z,-3.87
2022-11-23T21:19:25.060Z,-3.97
2022-11-23T21:21:53.796Z,-3.93
2022-11-23T21:24:23.720Z,-4.18
2022-11-23T21:26:52.250Z,-4.15
2022-11-23T21:29:20.718Z,-4.20
2022-11-23T21:31:49.957Z,-4.18
2022-11-23T21:34:20.244Z,-4.10
2022-11-23T21:36:49.327Z,-4.00
2022-11-23T21:39:18.331Z,-3.98
2022-11-23T21:41:50.830Z,-4.18
2022-11-23T21:44:19.336Z,-4.10
2022-11-23T21:46:47.775Z,-4.19
2022-11-23T21:49:16.193Z,-4.29
2022-11-23T21:51:45.748Z,-4.29
2022-11-23T21:54:16.002Z,-4.53
2022-11-23T21:56:45.404Z,-4.29
2022-11-23T21:59:15.265Z,-4.38
2022-11-23T22:01:43.874Z,-4.23
2022-11-23T22:04:13.417Z,-4.34
2022-11-23T22:06:44.525Z,-4.20
2022-11-23T22:09:13.416Z,-4.20
2022-11-23T22:11:43.260Z,-4.25
2022-11-23T22:14:12.974Z,-4.18
2022-11-23T22:16:44.190Z,-4.16
2022-11-23T22:19:13.724Z,-4.14
2022-11-23T22:21:43.042Z,-4.10
2022-11-23T22:24:13.571Z,-4.20
2022-11-23T22:26:42.017Z,-4.20
2022-11-23T22:29:10.979Z,-4.25
2022-11-23T22:31:39.906Z,-4.30
2022-11-23T22:34:12.457Z,-4.29
2022-11-23T22:36:41.323Z,-4.22
2022-11-23T22:39:10.067Z,-4.26
2022-11-23T22:41:39.021Z,-4.27
2022-11-23T22:44:09.041Z,-4.19
2022-11-23T22:46:37.869Z,-4.15
2022-11-23T22:49:06.540Z,-4.25
2022-11-23T22:51:36.329Z,-4.13
2022-11-23T22:54:05.219Z,-4.14
2022-11-23T22:56:33.599Z,-4.15
2022-11-23T22:59:02.032Z,-4.15
2022-11-23T23:01:31.872Z,-4.11
2022-11-23T23:04:02.520Z,-4.09
2022-11-23T23:06:33.785Z,-4.02
2022-11-23T23:09:05.120Z,-4.03
2022-11-23T23:11:34.564Z,-3.93
2022-11-23T23:14:03.128Z,-4.19
2022-11-23T23:16:31.624Z,-4.12
2022-11-23T23:19:00.626Z,-4.38
2022-11-23T23:21:30.323Z,-4.43
2022-11-23T23:24:00.449Z,-4.36
2022-11-23T23:26:30.563Z,-4.41
2022-11-23T23:29:00.483Z,-4.50
2022-11-23T23:31:30.056Z,-4.26
2022-11-23T23:33:59.772Z,-4.20
2022-11-23T23:36:28.228Z,-4.19
2022-11-23T23:38:57.753Z,-4.23
2022-11-23T23:41:26.146Z,-4.34
2022-11-23T23:43:55.974Z,-4.34
2022-11-23T23:46:24.317Z,-4.39
2022-11-23T23:48:52.933Z,-4.38
2022-11-23T23:51:22.913Z,-4.43
2022-11-23T23:53:52.143Z,-4.43
2022-11-23T23:56:22.165Z,-4.38
2022-11-23T23:58:50.712Z,-4.48
